createdAt,value
2023-03-11T00:02:04.966Z,3.90
2023-03-11T00:04:52.517Z,3.90
2023-03-11T00:07:40.097Z,4.00
2023-03-11T00:10:32.576Z,4.00
2023-03-11T00:13:19.805Z,4.00
2023-03-11T00:16:07.579Z,4.00
2023-03-11T00:18:54.638Z,4.10
2023-03-11T00:21:41.917Z,4.00
2023-03-11T00:24:29.074Z,3.80
2023-03-11T00:27:16.209Z,3.90
2023-03-11T00:30:04.036Z,3.90
2023-03-11T00:32:53.671Z,3.90
2023-03-11T00:35:41.189Z,3.90
2023-03-11T00:38:28.171Z,4.00
2023-03-11T00:41:15.466Z,4.00
2023-03-11T00:44:03.118Z,3.70
2023-03-11T00:46:52.751Z,3.80
2023-03-11T00:49:40.150Z,3.70
2023-03-11T00:52:28.777Z,3.70
2023-03-11T00:55:19.126Z,3.70
2023-03-11T00:58:07.981Z,3.60
2023-03-11T01:00:55.206Z,3.80
2023-03-11T01:03:43.438Z,3.80
2023-03-11T01:06:43.157Z,3.80
2023-03-11T01:09:19.580Z,3.80
2023-03-11T01:12:06.733Z,3.80
2023-03-11T01:14:54.110Z,3.80
2023-03-11T01:17:41.318Z,3.70
2023-03-11T01:20:28.691Z,3.60
2023-03-11T01:23:18.760Z,3.60
2023-03-11T01:26:05.973Z,3.70
2023-03-11T01:28:53.254Z,3.80
2023-03-11T01:31:43.503Z,3.80
2023-03-11T01:34:30.828Z,3.70
2023-03-11T01:37:23.825Z,3.60
2023-03-11T01:40:14.048Z,3.60
2023-03-11T01:43:02.441Z,3.60
2023-03-11T01:45:55.517Z,3.70
2023-03-11T01:48:48.400Z,3.80
2023-03-11T01:51:38.829Z,3.60
2023-03-11T01:54:34.607Z,3.60
2023-03-11T01:57:22.452Z,3.70
2023-03-11T02:00:12.190Z,3.60
2023-03-11T02:03:02.130Z,3.70
2023-03-11T02:05:52.162Z,3.70
2023-03-11T02:08:41.827Z,3.80
2023-03-11T02:11:31.473Z,3.80
2023-03-11T02:14:18.931Z,3.80
2023-03-11T02:17:06.785Z,3.90
2023-03-11T02:20:25.260Z,3.80
2023-03-11T02:23:15.047Z,3.80
2023-03-11T02:26:14.603Z,3.80
2023-03-11T02:31:59.165Z,3.80
2023-03-11T02:34:50.566Z,3.70
2023-03-11T02:37:38.267Z,3.80
2023-03-11T02:40:30.408Z,3.90
2023-03-11T02:43:21.093Z,3.80
2023-03-11T02:46:11.605Z,3.90
2023-03-11T02:49:00.552Z,3.80
2023-03-11T02:51:47.664Z,3.80
2023-03-11T02:54:34.660Z,3.80
2023-03-11T02:57:21.767Z,3.80
2023-03-11T03:00:11.072Z,3.90
2023-03-11T03:02:58.571Z,4.00
2023-03-11T03:05:45.915Z,4.00
2023-03-11T03:08:33.096Z,4.00
2023-03-11T03:11:22.427Z,3.90
2023-03-11T03:14:09.729Z,3.90
2023-03-11T03:16:57.282Z,4.00
2023-03-11T03:19:44.791Z,3.90
2023-03-11T03:22:32.088Z,3.80
2023-03-11T03:25:19.546Z,3.70
2023-03-11T03:28:09.156Z,3.80
2023-03-11T03:30:56.198Z,3.70
2023-03-11T03:33:43.572Z,3.80
2023-03-11T03:36:31.355Z,3.80
2023-03-11T03:39:19.919Z,3.70
2023-03-11T03:42:07.413Z,3.70
2023-03-11T03:44:54.615Z,3.70
2023-03-11T03:47:41.878Z,3.70
2023-03-11T03:50:29.245Z,3.70
2023-03-11T03:53:16.887Z,3.70
2023-03-11T03:56:12.455Z,3.70
2023-03-11T03:58:59.564Z,3.60
2023-03-11T04:01:46.962Z,3.60
2023-03-11T04:04:34.470Z,3.70
2023-03-11T04:07:21.761Z,3.60
2023-03-11T04:10:09.365Z,3.60
2023-03-11T04:12:56.405Z,3.50
2023-03-11T04:15:43.611Z,3.50
2023-03-11T04:18:34.460Z,3.70
2023-03-11T04:21:21.647Z,3.70
2023-03-11T04:24:09.257Z,3.90
2023-03-11T04:26:56.716Z,3.90
2023-03-11T04:29:43.807Z,3.80
2023-03-11T04:32:31.217Z,3.80
2023-03-11T04:35:18.880Z,3.80
2023-03-11T04:38:06.066Z,3.80
2023-03-11T04:40:53.434Z,4.00
2023-03-11T04:43:40.840Z,4.00
2023-03-11T04:46:28.207Z,4.00
2023-03-11T04:49:15.554Z,3.90
2023-03-11T04:52:03.039Z,3.80
2023-03-11T04:54:50.075Z,3.80
2023-03-11T04:57:37.377Z,3.90
2023-03-11T05:00:27.353Z,3.80
2023-03-11T05:03:15.987Z,3.80
2023-03-11T05:06:03.474Z,3.80
2023-03-11T05:08:51.147Z,3.90
2023-03-11T05:11:38.194Z,3.90
2023-03-11T05:14:25.677Z,4.10
2023-03-11T05:17:14.841Z,4.10
2023-03-11T05:20:02.099Z,4.20
2023-03-11T05:22:49.550Z,4.30
2023-03-11T05:25:36.900Z,4.20
2023-03-11T05:28:24.247Z,4.20
2023-03-11T05:31:12.180Z,4.20
2023-03-11T05:33:59.398Z,4.00
2023-03-11T05:36:46.918Z,3.80
2023-03-11T05:39:34.789Z,3.80
2023-03-11T05:42:22.313Z,3.70
2023-03-11T05:45:10.477Z,3.60
2023-03-11T05:47:57.556Z,3.50
2023-03-11T05:50:44.659Z,3.50
2023-03-11T05:53:32.104Z,3.60
2023-03-11T05:56:22.314Z,3.60
2023-03-11T05:59:10.758Z,3.60
2023-03-11T06:01:57.819Z,3.50
2023-03-11T06:04:45.399Z,3.40
2023-03-11T06:07:32.386Z,3.30
2023-03-11T06:10:19.488Z,3.30
2023-03-11T06:13:07.029Z,3.30
2023-03-11T06:15:54.178Z,3.40
2023-03-11T06:18:41.573Z,3.30
2023-03-11T06:21:28.922Z,3.30
2023-03-11T06:24:16.140Z,3.30
2023-03-11T06:27:03.345Z,3.30
2023-03-11T06:29:54.799Z,3.40
2023-03-11T06:32:43.511Z,3.30
2023-03-11T06:35:30.789Z,3.40
2023-03-11T06:38:17.885Z,3.40
2023-03-11T06:41:07.157Z,3.30
2023-03-11T06:43:54.382Z,3.30
2023-03-11T06:46:41.828Z,3.30
2023-03-11T06:49:28.886Z,3.30
2023-03-11T06:52:16.414Z,3.40
2023-03-11T06:55:04.107Z,3.50
2023-03-11T06:57:51.488Z,3.40
2023-03-11T07:00:38.476Z,3.40
2023-03-11T07:03:25.797Z,3.20
2023-03-11T07:06:18.317Z,3.30
2023-03-11T07:09:08.798Z,3.40
2023-03-11T07:11:56.317Z,3.50
2023-03-11T07:14:43.308Z,3.50
2023-03-11T07:17:30.783Z,3.50
2023-03-11T07:20:19.028Z,3.50
2023-03-11T07:23:10.572Z,3.50
2023-03-11T07:25:58.217Z,3.40
2023-03-11T07:28:45.580Z,3.40
2023-03-11T07:31:35.026Z,3.50
2023-03-11T07:34:22.110Z,3.70
2023-03-11T07:37:09.412Z,3.70
2023-03-11T07:39:56.747Z,3.70
2023-03-11T07:42:44.004Z,3.60
2023-03-11T07:45:31.268Z,3.60
2023-03-11T07:48:19.606Z,3.80
2023-03-11T07:51:13.419Z,4.00
2023-03-11T07:54:04.801Z,4.10
2023-03-11T07:56:52.030Z,4.30
2023-03-11T07:59:39.522Z,4.50
2023-03-11T08:02:27.016Z,4.50
2023-03-11T08:05:14.458Z,4.30
2023-03-11T08:08:01.766Z,4.10
2023-03-11T08:10:48.567Z,4.10
2023-03-11T08:13:36.052Z,4.00
2023-03-11T08:16:27.007Z,4.10
2023-03-11T08:19:14.972Z,4.20
2023-03-11T08:22:04.471Z,4.30
2023-03-11T08:24:53.121Z,4.20
2023-03-11T08:27:40.416Z,4.20
2023-03-11T08:30:27.749Z,4.40
2023-03-11T08:33:14.880Z,4.30
2023-03-11T08:36:02.403Z,4.50
2023-03-11T08:38:50.013Z,4.50
2023-03-11T08:41:37.691Z,4.60
2023-03-11T08:44:24.728Z,4.50
2023-03-11T08:47:11.929Z,4.90
2023-03-11T08:49:59.211Z,5.00
2023-03-11T08:52:46.903Z,4.90
2023-03-11T08:55:34.661Z,5.00
2023-03-11T08:58:22.007Z,5.20
2023-03-11T09:01:09.834Z,5.20
2023-03-11T09:03:56.951Z,5.30
2023-03-11T09:06:46.407Z,5.30
2023-03-11T09:09:33.761Z,5.50
2023-03-11T09:12:21.601Z,5.70
2023-03-11T09:15:09.357Z,5.60
2023-03-11T09:17:56.845Z,6.00
2023-03-11T09:20:44.721Z,6.30
2023-03-11T09:23:34.197Z,6.00
2023-03-11T09:26:21.879Z,5.60
2023-03-11T09:29:09.284Z,5.60
2023-03-11T09:31:56.754Z,5.70
2023-03-11T09:34:44.207Z,5.80
2023-03-11T09:37:31.994Z,5.80
2023-03-11T09:40:24.091Z,5.60
2023-03-11T09:43:32.684Z,6.00
2023-03-11T09:46:29.007Z,6.30
2023-03-11T09:49:53.669Z,6.20
2023-03-11T09:53:13.870Z,6.20
2023-03-11T09:56:02.139Z,6.30
2023-03-11T09:58:52.504Z,6.40
2023-03-11T10:01:48.471Z,6.80
2023-03-11T10:04:47.422Z,6.90
2023-03-11T10:07:43.169Z,7.10
2023-03-11T10:10:32.656Z,6.90
2023-03-11T10:13:23.616Z,7.10
2023-03-11T10:16:22.475Z,7.30
2023-03-11T10:19:18.760Z,7.20
2023-03-11T10:22:37.253Z,6.70
2023-03-11T10:25:33.299Z,6.60
2023-03-11T10:28:23.719Z,6.70
2023-03-11T10:31:31.954Z,7.20
2023-03-11T10:34:40.180Z,7.70
2023-03-11T10:37:49.379Z,8.20
2023-03-11T10:40:39.016Z,8.60
2023-03-11T10:43:34.647Z,9.00
2023-03-11T10:46:25.464Z,8.80
2023-03-11T10:49:17.391Z,9.00
2023-03-11T10:52:04.798Z,9.20
2023-03-11T10:55:00.969Z,8.70
2023-03-11T10:57:48.291Z,8.50
2023-03-11T11:00:35.747Z,8.10
2023-03-11T11:03:24.984Z,8.00
2023-03-11T11:06:27.417Z,8.20
2023-03-11T11:09:20.177Z,8.10
2023-03-11T11:12:18.615Z,7.80
2023-03-11T11:15:06.038Z,7.40
2023-03-11T11:17:55.638Z,7.40
2023-03-11T11:20:46.188Z,7.30
2023-03-11T11:23:42.322Z,7.40
2023-03-11T11:26:29.391Z,7.40
2023-03-11T11:29:16.761Z,7.20
2023-03-11T11:32:18.001Z,7.10
2023-03-11T11:35:07.990Z,7.10
2023-03-11T11:37:58.673Z,7.30
2023-03-11T11:40:46.363Z,7.30
2023-03-11T11:43:54.009Z,7.60
2023-03-11T11:46:57.942Z,7.20
2023-03-11T11:49:51.137Z,7.40
2023-03-11T11:52:59.600Z,7.40
2023-03-11T11:55:52.622Z,7.40
2023-03-11T11:58:41.666Z,7.10
2023-03-11T12:01:40.191Z,7.20
2023-03-11T12:04:39.433Z,7.00
2023-03-11T12:07:35.650Z,7.20
2023-03-11T12:10:31.656Z,7.30
2023-03-11T12:13:33.020Z,7.20
2023-03-11T12:16:23.522Z,7.50
2023-03-11T12:19:22.504Z,7.90
2023-03-11T12:22:15.509Z,8.00
2023-03-11T12:25:33.334Z,8.00
2023-03-11T12:28:23.688Z,8.00
2023-03-11T12:31:12.832Z,7.70
2023-03-11T12:34:03.192Z,7.30
2023-03-11T12:36:51.792Z,7.50
2023-03-11T12:39:39.055Z,8.00
2023-03-11T12:42:29.533Z,8.00
2023-03-11T12:45:50.739Z,8.00
2023-03-11T12:48:43.463Z,7.80
2023-03-11T12:51:37.610Z,7.50
2023-03-11T12:54:47.892Z,7.80
2023-03-11T12:57:53.426Z,8.20
2023-03-11T13:00:49.038Z,8.30
2023-03-11T13:03:43.010Z,8.20
2023-03-11T13:06:39.509Z,8.00
2023-03-11T13:09:26.874Z,7.80
2023-03-11T13:12:42.636Z,7.80
2023-03-11T13:15:37.755Z,7.70
2023-03-11T13:18:33.352Z,8.00
2023-03-11T13:21:32.875Z,8.00
2023-03-11T13:24:24.965Z,7.80
2023-03-11T13:27:15.180Z,7.70
2023-03-11T13:30:14.292Z,7.70
2023-03-11T13:33:22.140Z,7.80
2023-03-11T13:36:27.536Z,8.00
2023-03-11T13:39:29.968Z,8.20
2023-03-11T13:42:29.205Z,7.90
2023-03-11T13:45:36.291Z,7.90
2023-03-11T13:48:31.929Z,8.00
2023-03-11T13:51:25.161Z,7.60
2023-03-11T13:54:22.554Z,8.20
2023-03-11T13:57:19.239Z,8.10
2023-03-11T14:00:18.299Z,8.30
2023-03-11T14:03:08.898Z,8.30
2023-03-11T14:06:04.485Z,8.30
2023-03-11T14:08:56.340Z,7.80
2023-03-11T14:11:45.768Z,7.90
2023-03-11T14:14:56.142Z,7.90
2023-03-11T14:17:43.420Z,8.20
2023-03-11T14:20:30.559Z,8.20
2023-03-11T14:23:19.980Z,8.20
2023-03-11T14:26:09.989Z,8.20
2023-03-11T14:29:00.380Z,8.20
2023-03-11T14:31:48.699Z,8.20
2023-03-11T14:34:39.049Z,8.20
2023-03-11T14:37:34.868Z,8.30
2023-03-11T14:40:33.977Z,8.30
2023-03-11T14:43:22.075Z,8.20
2023-03-11T14:46:11.663Z,7.90
2023-03-11T14:48:59.396Z,8.00
2023-03-11T14:51:49.248Z,8.20
2023-03-11T14:54:37.866Z,8.10
2023-03-11T14:57:30.815Z,8.20
2023-03-11T15:00:21.305Z,8.20
2023-03-11T15:03:14.107Z,8.30
2023-03-11T15:06:04.615Z,8.20
2023-03-11T15:08:54.796Z,8.20
2023-03-11T15:11:55.462Z,8.20
2023-03-11T15:14:52.803Z,8.40
2023-03-11T15:17:44.169Z,8.50
2023-03-11T15:20:36.737Z,8.70
2023-03-11T15:23:24.518Z,8.80
2023-03-11T15:26:31.582Z,8.90
2023-03-11T15:29:19.108Z,8.80
2023-03-11T15:32:31.615Z,8.70
2023-03-11T15:35:29.937Z,8.70
2023-03-11T15:38:25.688Z,8.70
2023-03-11T15:41:14.734Z,8.90
2023-03-11T15:44:03.587Z,9.00
2023-03-11T15:46:54.291Z,9.10
2023-03-11T15:49:41.438Z,8.90
2023-03-11T15:52:28.695Z,8.80
2023-03-11T15:55:16.150Z,8.70
2023-03-11T15:58:06.302Z,8.50
2023-03-11T16:00:56.573Z,8.40
2023-03-11T16:03:43.881Z,8.30
2023-03-11T16:06:31.031Z,8.40
2023-03-11T16:09:18.480Z,8.60
2023-03-11T16:12:20.524Z,8.60
2023-03-11T16:15:10.122Z,8.70
2023-03-11T16:17:59.751Z,8.50
2023-03-11T16:20:52.847Z,8.70
2023-03-11T16:23:51.188Z,8.70
2023-03-11T16:26:30.378Z,8.70
2023-03-11T16:29:20.000Z,8.50
2023-03-11T16:32:08.786Z,8.70
2023-03-11T16:34:56.213Z,8.90
2023-03-11T16:37:43.642Z,8.80
2023-03-11T16:40:32.635Z,8.80
2023-03-11T16:43:19.846Z,8.70
2023-03-11T16:46:07.305Z,8.50
2023-03-11T16:48:54.589Z,8.30
2023-03-11T16:51:41.678Z,8.10
2023-03-11T16:54:28.705Z,7.90
2023-03-11T16:57:16.094Z,7.80
2023-03-11T17:00:04.485Z,7.70
2023-03-11T17:02:52.726Z,7.70
2023-03-11T17:05:40.234Z,7.70
2023-03-11T17:08:27.301Z,7.60
2023-03-11T17:11:21.058Z,7.40
2023-03-11T17:14:16.314Z,7.30
2023-03-11T17:16:57.084Z,7.30
2023-03-11T17:19:44.583Z,7.40
2023-03-11T17:22:32.373Z,7.30
2023-03-11T17:25:20.178Z,7.20
2023-03-11T17:28:07.835Z,7.20
2023-03-11T17:30:55.592Z,7.10
2023-03-11T17:33:43.641Z,7.00
2023-03-11T17:36:30.961Z,7.00
2023-03-11T17:39:18.243Z,6.90
2023-03-11T17:42:06.126Z,6.90
2023-03-11T17:44:57.890Z,6.80
2023-03-11T17:47:45.272Z,6.80
2023-03-11T17:50:32.555Z,6.70
2023-03-11T17:53:20.362Z,6.60
2023-03-11T17:56:08.513Z,6.50
2023-03-11T17:58:55.886Z,6.40
2023-03-11T18:01:43.911Z,6.30
2023-03-11T18:04:31.157Z,6.10
2023-03-11T18:07:18.938Z,6.00
2023-03-11T18:10:07.586Z,5.80
2023-03-11T18:12:54.705Z,5.70
2023-03-11T18:15:41.986Z,5.50
2023-03-11T18:18:30.658Z,5.40
2023-03-11T18:21:23.561Z,5.20
2023-03-11T18:24:10.787Z,5.10
2023-03-11T18:26:58.244Z,5.00
2023-03-11T18:29:45.904Z,4.80
2023-03-11T18:32:33.344Z,4.70
2023-03-11T18:35:21.604Z,4.60
2023-03-11T18:38:08.772Z,4.40
2023-03-11T18:40:59.093Z,4.20
2023-03-11T18:43:46.285Z,3.90
2023-03-11T18:46:33.642Z,3.70
2023-03-11T18:49:20.975Z,3.50
2023-03-11T18:52:08.937Z,3.50
2023-03-11T18:54:56.232Z,3.40
2023-03-11T18:57:43.410Z,3.30
2023-03-11T19:00:31.066Z,3.10
2023-03-11T19:03:18.133Z,3.00
2023-03-11T19:06:06.154Z,2.80
2023-03-11T19:08:54.291Z,2.80
2023-03-11T19:11:41.535Z,2.70
2023-03-11T19:14:29.053Z,2.70
2023-03-11T19:17:18.257Z,2.60
2023-03-11T19:20:08.241Z,2.60
2023-03-11T19:22:58.412Z,2.50
2023-03-11T19:26:00.716Z,2.50
2023-03-11T19:28:34.686Z,2.40
2023-03-11T19:31:22.215Z,2.40
2023-03-11T19:34:09.787Z,2.40
2023-03-11T19:36:58.643Z,2.30
2023-03-11T19:39:45.846Z,2.20
2023-03-11T19:42:34.545Z,2.20
2023-03-11T19:45:21.578Z,2.30
2023-03-11T19:48:10.460Z,2.30
2023-03-11T19:50:58.528Z,2.30
2023-03-11T19:53:47.029Z,2.30
2023-03-11T19:56:34.313Z,2.20
2023-03-11T19:59:21.892Z,2.20
2023-03-11T20:02:11.669Z,2.30
2023-03-11T20:04:59.215Z,2.40
2023-03-11T20:07:46.650Z,2.40
2023-03-11T20:10:34.714Z,2.40
2023-03-11T20:13:23.194Z,2.30
2023-03-11T20:16:13.371Z,2.20
2023-03-11T20:19:01.271Z,2.10
2023-03-11T20:21:48.372Z,2.00
2023-03-11T20:24:35.734Z,1.90
2023-03-11T20:27:23.098Z,1.90
2023-03-11T20:30:11.342Z,1.80
2023-03-11T20:32:58.423Z,1.70
2023-03-11T20:35:45.741Z,1.70
2023-03-11T20:38:32.825Z,1.70
2023-03-11T20:41:23.113Z,1.80
2023-03-11T20:44:13.066Z,1.80
2023-03-11T20:47:00.406Z,1.70
2023-03-11T20:49:47.742Z,1.70
2023-03-11T20:52:35.729Z,1.70
2023-03-11T20:55:23.136Z,1.60
2023-03-11T20:58:10.589Z,1.60
2023-03-11T21:00:59.644Z,1.60
2023-03-11T21:03:47.376Z,1.60
2023-03-11T21:06:37.420Z,1.50
2023-03-11T21:09:25.415Z,1.50
2023-03-11T21:12:12.780Z,1.50
2023-03-11T21:15:02.872Z,1.50
2023-03-11T21:17:50.155Z,1.40
2023-03-11T21:20:37.977Z,1.40
2023-03-11T21:23:26.718Z,1.30
2023-03-11T21:26:15.409Z,1.20
2023-03-11T21:29:03.024Z,1.20
2023-03-11T21:31:50.338Z,1.30
2023-03-11T21:34:37.320Z,1.20
2023-03-11T21:37:24.789Z,1.20
2023-03-11T21:40:13.044Z,1.30
2023-03-11T21:43:00.633Z,1.20
2023-03-11T21:45:48.075Z,1.20
2023-03-11T21:48:35.800Z,1.20
2023-03-11T21:51:23.316Z,1.10
2023-03-11T21:54:12.126Z,1.00
2023-03-11T21:56:59.397Z,1.00
2023-03-11T21:59:46.738Z,1.00
2023-03-11T22:02:33.709Z,1.10
2023-03-11T22:05:20.846Z,1.10
2023-03-11T22:08:08.111Z,1.00
2023-03-11T22:10:56.052Z,1.00
2023-03-11T22:13:45.281Z,0.90
2023-03-11T22:16:32.664Z,0.90
2023-03-11T22:19:20.511Z,0.90
2023-03-11T22:22:07.567Z,0.80
2023-03-11T22:24:55.028Z,0.80
2023-03-11T22:27:42.373Z,0.80
2023-03-11T22:30:29.587Z,0.80
2023-03-11T22:33:17.146Z,0.80
2023-03-11T22:36:06.442Z,0.80
2023-03-11T22:38:53.818Z,0.70
2023-03-11T22:41:40.985Z,0.70
2023-03-11T22:44:28.837Z,0.70
2023-03-11T22:47:16.191Z,0.70
2023-03-11T22:50:03.483Z,0.60
2023-03-11T22:52:50.726Z,0.60
2023-03-11T22:55:42.427Z,0.60
2023-03-11T22:58:29.554Z,0.60
2023-03-11T23:01:16.982Z,0.70
2023-03-11T23:04:04.143Z,0.70
2023-03-11T23:06:53.213Z,0.70
2023-03-11T23:09:42.729Z,0.70
2023-03-11T23:12:30.126Z,0.70
2023-03-11T23:15:19.552Z,0.60
2023-03-11T23:18:06.785Z,0.60
2023-03-11T23:20:54.336Z,0.70
2023-03-11T23:23:41.697Z,0.70
2023-03-11T23:26:30.584Z,0.70
2023-03-11T23:29:18.241Z,0.70
2023-03-11T23:32:06.558Z,0.70
2023-03-11T23:34:53.671Z,0.80
2023-03-11T23:37:41.126Z,0.90
2023-03-11T23:40:28.009Z,1.00
2023-03-11T23:43:14.947Z,1.00
2023-03-11T23:46:02.702Z,0.90
2023-03-11T23:48:49.872Z,0.80
2023-03-11T23:51:37.310Z,0.70
2023-03-11T23:54:24.051Z,0.60
2023-03-11T23:57:11.298Z,0.60
2023-03-11T23:59:58.753Z,0.50
